San Diego, California
Traffic Map
Current Weather Conditions
San Diego, California
Few Clouds
Few Clouds
65°
Feels Like: 65°
Wind Chill: 65° Ceiling: Unl
Heat Index: 65° Visibility: 10mi
Dew Point: 58° Wind: 3mph
Humidity: 78% Direction: 160° (SSE)
Pressure: 29.87in Gusts: 0mph
Raw Report DataKSAN 230751Z 16003KT 10SM FEW250 18/14 A2987 RMK AO2 SLP115 T01830144 402780150
Traffic Incident Summary
Active as of:
Severity:
Category:
InformationThere was an issue retrieving the traffic information for this location. Please try a different location or try again shortly.
Advertisements
Track Severe Weather on mobile